Tiempo atmosférico en la estación meteorológica de Torremolinos, Málaga (85 m.)



Fecha
DESCASC
Temp. máxima en grados centígrados (hora)
DESCASC
Temp. mínima en grados centígrados (hora)
DESCASC
Temp. media en grados centígrados
DESCASC
Racha de viento máxima en m/sg (hora)
DESCASC
Velocidad máxima media en intervalos de 10 minutos(hora)
DESCASC
Precipitaciones diarias en mm
DESCASC
Precipitaciones de 00:00 a 06:00 en mm
DESCASC
Precipitaciones de 06:00 a 12:00 en mm
DESCASC
Precipitaciones de 12:00 a 18:00 en mm
DESCASC
Precipitaciones de 18:00 a 24:00 en mm
DESCASC
29-10-2020 23.5 (15:20) 12.9 (07:40) 18.2 3.61 (12:40) 2.22 (13:00) 0 0 0 0 0
28-10-2020 20.9 (12:40) 13.9 (23:20) 17.4 10.56 (07:00) 4.72 (05:50) 0 0 0 0 0
27-10-2020 22.6 (16:00) 14.6 (00:00) 18.6 12.5 (23:20) 5.28 (02:00) -- -- -- -- 0
26-10-2020 20.6 (14:10) 15.1 (00:00) 17.9 11.11 (10:50) 3.33 (23:20) -- -- -- -- --
25-10-2020 24.9 (15:00) 14.4 (00:00) 19.6 8.89 (09:30) 3.06 (04:00) -- -- -- -- --
24-10-2020 23.2 (17:00) 16.6 (00:00) 19.9 8.89 (09:10) 4.17 (06:10) -- -- -- -- --
23-10-2020 21.4 (14:10) 13.7 (00:00) 17.5 5.28 (15:30) 3.06 (15:10) -- 0.8 -- -- --
22-10-2020 18 (00:00) 16 (00:00) 17 3.06 (13:10) 1.67 (11:20) 3 0 1.6 0.6 0.8
21-10-2020 21.7 (15:30) 17.2 (00:00) 19.5 5.28 (08:20) 2.22 (13:10) 7.4 4.4 3 0 0
20-10-2020 20.4 (14:50) 16.8 (00:00) 18.6 4.72 (14:30) 1.94 (14:40) 0.2 0 0 0 0.2
19-10-2020 22 (11:50) 14.9 (00:00) 18.4 5.83 (14:00) 2.5 (15:50) 0 0 0 0 0
18-10-2020 21.5 (15:00) 12.6 (00:00) 17.1 4.17 (11:30) 2.22 (13:00) 0 0 0 0 0
17-10-2020 21.4 (16:20) 12.4 (00:00) 16.9 5.56 (17:30) 2.78 (16:40) 0 0 0 0 0
16-10-2020 21 (14:20) 14.3 (00:00) 17.7 8.89 (06:10) 3.61 (04:20) 0 0 0 0 0
15-10-2020 23.6 (12:30) 17.4 (00:00) 20.5 8.06 (17:30) 3.61 (14:40) 0 0 0 0 0
14-10-2020 26.4 (15:50) 15.1 (00:00) 20.8 10.56 (16:30) 4.17 (12:30) 0 0 0 0 0
13-10-2020 22.4 (15:40) 14.2 (00:00) 18.3 6.39 (16:20) 3.89 (16:20) 0 0 0 0 0
12-10-2020 22.3 (14:20) 15.5 (00:00) 18.9 5 (14:20) 2.22 (14:30) 0 0 0 0 0
11-10-2020 23.7 (18:00) 16 (00:00) 19.9 4.72 (15:50) 2.22 (16:00) 0 0 0 0 0
10-10-2020 23.2 (15:20) 16.6 (00:00) 19.9 4.72 (13:30) 2.5 (16:00) 0 0 0 0 0
09-10-2020 23.9 (15:10) 17.2 (00:00) 20.6 5.56 (12:50) 2.78 (10:00) 0 0 0 0 0
08-10-2020 26.1 (16:10) 17.6 (00:00) 21.9 5.28 (12:20) 2.22 (12:20) 0 0 0 0 0
07-10-2020 26 (14:10) 15.6 (00:00) 20.8 4.72 (13:10) 2.5 (13:00) 0 0 0 0 0
06-10-2020 23.8 (15:30) 15.9 (00:00) 19.8 8.61 (00:20) 2.78 (00:20) 0 0 0 0 0
05-10-2020 26.4 (15:40) 17.1 (00:00) 21.8 14.17 (11:50) 5.83 (13:00) 0 0 0 0 0
04-10-2020 25.9 (18:00) 16 (00:00) 20.9 9.17 (21:40) 3.61 (15:30) 0 0 0 0 0
03-10-2020 23.1 (17:40) 13.2 (00:00) 18.2 11.94 (12:30) 4.17 (04:10) 0 0 0 0 0
02-10-2020 24.8 (15:00) 17.6 (00:00) 21.2 11.11 (17:30) 4.17 (15:40) 0.2 0 0 0 0.2
01-10-2020 31.5 (17:40) 18.8 (00:00) 25.1 8.61 (06:20) 3.89 (13:50) 0 0 0 0 0

Gráficas

Temp. máximas Temp. mínimas Temp. medias Precipitaciones Rachas de viento máximas Velocidades máximas media en intervalos de 10 minutos

Datos horarios

Fecha y hora oficial Temperatura (ºC) Velocidad del viento (km/h) Dirección del viento Racha (km/h) Dirección de racha Precipitación (mm) Presión (hPa) Tendencia (hPa) Humedad (%)
2020-10-30 23:00:00 16.5 0 Calma 2 Noroeste 0 -- -- 66
2020-10-30 22:00:00 16.6 0 Calma 3 Sudoeste 0 -- -- 59
2020-10-30 21:00:00 16.9 0 Calma 2 Noroeste 0 -- -- 59
2020-10-30 20:00:00 17.3 0 Calma 5 Noroeste 0 -- -- 60
2020-10-30 19:00:00 17.9 0 Calma 2 Nordeste 0 -- -- 61
2020-10-30 18:00:00 19.3 0 Calma 9 Oeste 0 -- -- 55
2020-10-30 17:00:00 20.4 4 Sudoeste 13 Sudoeste 0 -- -- 48
2020-10-30 16:00:00 22.1 5 Sudoeste 13 Oeste 0 -- -- 46
2020-10-30 15:00:00 21.7 9 Sudeste 16 Sudeste 0 -- -- 47
2020-10-30 14:00:00 22.4 4 Sur 17 Sudeste 0 -- -- 46
2020-10-30 13:00:00 22.3 5 Este 16 Sudeste 0 -- -- 47
2020-10-30 12:00:00 21.9 5 Sur 13 Sur 0 -- -- 52
2020-10-30 11:00:00 21 6 Sudeste 11 Sudeste 0 -- -- 54
2020-10-30 10:00:00 20.7 3 Sudeste 7 Sudeste 0 -- -- 53
2020-10-30 09:00:00 17.6 0 Calma 5 Nordeste 0 -- -- 59
2020-10-30 08:00:00 15.3 0 Calma 5 Noroeste 0 -- -- 68
2020-10-30 07:00:00 15.6 0 Calma 4 Noroeste 0 -- -- 62
2020-10-30 06:00:00 15.8 0 Calma 5 Norte 0 -- -- 57
2020-10-30 05:00:00 15 0 Calma 5 Noroeste 0 -- -- 69
2020-10-30 04:00:00 15.1 0 Calma 4 Noroeste 0 -- -- 73
2020-10-30 03:00:00 15.2 0 Calma 4 Noroeste 0 -- -- 66
2020-10-30 02:00:00 15.5 0 Calma 4 Noroeste 0 -- -- 59
2020-10-30 01:00:00 16.3 0 Calma 5 Nordeste 0 -- -- 59
2020-10-30 00:00:00 16.8 0 Calma 4 Nordeste 0 -- -- 57
2020-10-29 23:00:00 16.9 0 Calma 5 Norte 0 -- -- 49
2020-10-29 22:00:00 16.7 0 Calma 5 Nordeste 0 -- -- 40
2020-10-29 21:00:00 17.1 0 Calma 4 Norte 0 -- -- 46
2020-10-29 20:00:00 17.5 0 Calma 5 Nordeste 0 -- -- 50
2020-10-29 19:00:00 18.6 4 Nordeste 10 Nordeste 0 -- -- 45
2020-10-29 18:00:00 19.9 3 Nordeste 9 Este 0 -- -- 40
2020-10-29 17:00:00 22.5 4 Este 12 Este 0 -- -- 30
2020-10-29 16:00:00 22.9 4 Este 10 Sudeste 0 -- -- 24
2020-10-29 15:00:00 23.2 4 Este 12 Este 0 -- -- 25
2020-10-29 14:00:00 22.5 6 Este 12 Sudeste 0 -- -- 29
2020-10-29 13:00:00 21.7 8 Sudeste 13 Sudeste 0 -- -- 32
2020-10-29 12:00:00 21.4 6 Sudeste 10 Este 0 -- -- 39
2020-10-29 11:00:00 21.9 6 Este 12 Nordeste 0 -- -- 37
2020-10-29 10:00:00 20.7 4 Este 8 Nordeste 0 -- -- 45
2020-10-29 09:00:00 16.3 0 Calma 2 Sur 0 -- -- 66
2020-10-29 08:00:00 13.1 0 Calma 2 Sudoeste 0 -- -- 71
2020-10-29 07:00:00 13.3 0 Calma 3 Sudoeste 0 -- -- 67
2020-10-29 06:00:00 14.1 2 Oeste 5 Oeste 0 -- -- 70
2020-10-29 05:00:00 13 0 Calma 3 Oeste 0 -- -- 73
2020-10-29 04:00:00 13.4 0 Calma 2 Sudoeste 0 -- -- 68
2020-10-29 03:00:00 13.7 0 Calma 2 Oeste 0 -- -- 65
2020-10-29 02:00:00 14.8 0 Calma 6 Oeste 0 -- -- 59
2020-10-29 01:00:00 16.1 2 Oeste 6 Sudoeste 0 -- -- 51
2020-10-29 00:00:00 15.5 2 Oeste 5 Oeste 0 -- -- 54
2020-10-28 23:00:00 14.2 0 Calma 2 Noroeste 0 -- -- 74
2020-10-28 22:00:00 14.4 0 Calma 2 Norte 0 -- -- 75
2020-10-28 21:00:00 15.1 0 Calma 2 Sudoeste 0 -- -- 69
2020-10-28 20:00:00 15.5 0 Calma 3 Sudoeste 0 -- -- 59
2020-10-28 19:00:00 16.8 0 Calma 6 Oeste 0 -- -- 59
2020-10-28 18:00:00 18.2 2 Sudoeste 8 Sudeste 0 -- -- 55
2020-10-28 17:00:00 20.2 4 Sur 12 Sur 0 -- -- 54
2020-10-28 16:00:00 20.2 6 Sur 14 Sur 0 -- -- 53
2020-10-28 15:00:00 20.1 6 Sur 15 Sur 0 -- -- 52
2020-10-28 14:00:00 20.8 6 Sur 16 Sur 0 -- -- 47
2020-10-28 13:00:00 20.7 8 Sur 15 Sudeste 0 -- -- 44
2020-10-28 12:00:00 20.5 6 Sur 14 Sudeste 0 -- -- 46
2020-10-28 11:00:00 19.5 7 Sudeste 15 Sudeste 0 -- -- 55
2020-10-28 10:00:00 19.1 2 Sur 12 Oeste 0 -- -- 55
2020-10-28 09:00:00 19.3 5 Noroeste 25 Noroeste 0 -- -- 38
2020-10-28 08:00:00 17.6 9 Noroeste 35 Noroeste 0 -- -- 39
2020-10-28 07:00:00 17.2 13 Noroeste 38 Norte 0 -- -- 41
2020-10-28 06:00:00 17.1 14 Noroeste 35 Noroeste 0 -- -- 41
2020-10-28 05:00:00 16.8 12 Noroeste 36 Noroeste 0 -- -- 42
2020-10-28 04:00:00 17 9 Noroeste 27 Noroeste 0 -- -- 41
2020-10-28 03:00:00 17.2 6 Norte 22 Noroeste 0 -- -- 39
2020-10-28 02:00:00 17.4 10 Noroeste 30 Noroeste 0 -- -- 39
2020-10-28 01:00:00 18 12 Noroeste 33 Noroeste 0 -- -- 38
2020-10-28 00:00:00 17.9 17 Noroeste 45 Noroeste 0 -- -- 38
2020-10-27 23:00:00 17.6 16 Noroeste 41 Norte 0 -- -- 39
2020-10-27 22:00:00 17.5 16 Noroeste 37 Norte 0 -- -- 39
2020-10-27 21:00:00 17.4 11 Noroeste 33 Noroeste 0 -- -- 40
2020-10-27 20:00:00 17.5 4 Noroeste 15 Noroeste 0 -- -- 40
2020-10-27 19:00:00 18.6 6 Noroeste 21 Norte 0 -- -- 36
2020-10-27 18:00:00 19.1 3 Norte 17 Noroeste 0 -- -- 33
2020-10-27 17:00:00 18.6 12 Oeste 26 Sudoeste 0 -- -- 43
2020-10-27 16:00:00 22.6 6 Norte 22 Oeste 0 -- -- 28
2020-10-27 15:00:00 20.4 8 Oeste 19 Sudoeste 0 -- -- 40
2020-10-27 14:00:00 21 12 Sudoeste 24 Oeste 0 -- -- 40
2020-10-27 13:00:00 22.3 8 Norte 26 Noroeste -- -- -- 30
2020-10-27 12:00:00 21.7 7 Norte 28 Noroeste -- -- -- 32
2020-10-27 11:00:00 19.9 13 Noroeste 30 Noroeste -- -- -- 33
2020-10-27 10:00:00 18.1 13 Noroeste 36 Noroeste -- -- -- 39
2020-10-27 09:00:00 16.4 14 Noroeste 33 Noroeste -- -- -- 44
2020-10-27 08:00:00 14.9 13 Noroeste 39 Noroeste -- -- -- 48
2020-10-27 07:00:00 15 13 Noroeste 36 Noroeste -- -- -- 47
2020-10-27 06:00:00 14.9 16 Noroeste 38 Norte -- -- -- 47
2020-10-27 05:00:00 14.7 14 Noroeste 39 Noroeste -- -- -- 48
2020-10-27 04:00:00 14.7 16 Norte 40 Noroeste -- -- -- 48
2020-10-27 03:00:00 14.6 10 Norte 38 Norte -- -- -- 49
2020-10-27 02:00:00 15.1 19 Norte 42 Noroeste -- -- -- 47
2020-10-27 01:00:00 14.8 8 Norte 32 Noroeste -- -- -- 49
2020-10-27 00:00:00 15.2 9 Norte 30 Noroeste -- -- -- 48
2020-10-26 23:00:00 15.5 11 Norte 28 Norte -- -- -- 47
2020-10-26 22:00:00 15.1 3 Oeste 12 Sudoeste -- -- -- 50
2020-10-26 21:00:00 16.2 4 Noroeste 25 Norte -- -- -- 46
2020-10-26 20:00:00 16.1 7 Norte 18 Noroeste -- -- -- 49
2020-10-26 19:00:00 16.7 4 Noroeste 21 Noroeste -- -- -- 46
2020-10-26 18:00:00 17.6 5 Norte 27 Nordeste -- -- -- 42
2020-10-26 17:00:00 18.7 7 Norte 30 Nordeste -- -- -- 37
2020-10-26 16:00:00 20 7 Nordeste 25 Nordeste -- -- -- 36
2020-10-26 15:00:00 20 8 Norte 30 Nordeste -- -- -- 34
2020-10-26 14:00:00 20.4 8 Norte 32 Nordeste -- -- -- 38
2020-10-26 13:00:00 19.3 6 Norte 33 Nordeste -- -- -- 41
2020-10-26 12:00:00 19 9 Norte 33 Noroeste -- -- -- 44
2020-10-26 11:00:00 18.2 8 Norte 40 Nordeste -- -- -- 46
2020-10-26 10:00:00 17.6 8 Norte 30 Nordeste -- -- -- 49
2020-10-26 09:00:00 16.2 11 Norte 34 Noroeste -- -- -- 54
2020-10-26 08:00:00 15.2 6 Norte 36 Norte -- -- -- 58
2020-10-26 07:00:00 16 7 Norte 33 Noroeste -- -- -- 56
2020-10-26 06:00:00 16.3 9 Norte 32 Noroeste -- -- -- 64
2020-10-26 05:00:00 16.2 7 Norte 32 Noroeste -- -- -- 70
2020-10-26 04:00:00 15.8 6 Norte 30 Oeste -- -- -- 78
2020-10-26 03:00:00 16 5 Norte 22 Noroeste -- -- -- 86
2020-10-26 02:00:00 17.5 4 Norte 24 Oeste -- -- -- 79
2020-10-26 01:00:00 18.3 6 Sudoeste 29 Oeste -- -- -- 76
2020-10-26 00:00:00 18.3 4 Oeste 24 Sudoeste -- -- -- 71
2020-10-25 23:00:00 17.8 8 Sudoeste 15 Sur -- -- -- 72
2020-10-25 22:00:00 17.4 2 Noroeste 8 Oeste -- -- -- 67
2020-10-25 21:00:00 17.7 0 Calma 9 Oeste -- -- -- 61
2020-10-25 20:00:00 17.7 0 Calma 7 Oeste -- -- -- 61
2020-10-25 19:00:00 19.1 3 Oeste 14 Oeste -- -- -- 56
2020-10-25 18:00:00 21.1 3 Oeste 10 Sudoeste -- -- -- 51
2020-10-25 17:00:00 23.4 4 Norte 22 Nordeste -- -- -- 41
2020-10-25 16:00:00 24.1 9 Nordeste 19 Nordeste -- -- -- 40
2020-10-25 15:00:00 24.9 6 Norte 27 Nordeste -- -- -- 38
2020-10-25 14:00:00 22.9 8 Oeste 24 Sudoeste -- -- -- 41
2020-10-25 13:00:00 22.9 5 Norte 19 Sudoeste -- -- -- 39
2020-10-25 12:00:00 21.3 5 Sudoeste 23 Sudoeste -- -- -- 51
2020-10-25 11:00:00 21 4 Noroeste 24 Norte -- -- -- 43
2020-10-25 10:00:00 19.6 9 Noroeste 32 Noroeste -- -- -- 50
2020-10-25 09:00:00 18.2 11 Noroeste 31 Noroeste -- -- -- 60
2020-10-25 08:00:00 15.8 8 Noroeste 22 Norte -- -- -- 73
2020-10-25 07:00:00 15.1 0 Calma 9 Noroeste -- -- -- 71
2020-10-25 06:00:00 16.8 5 Noroeste 19 Noroeste -- -- -- 67
2020-10-25 05:00:00 17.3 6 Noroeste 29 Noroeste -- -- -- 67
2020-10-25 04:00:00 17.4 11 Noroeste 22 Noroeste -- -- -- 66
2020-10-25 03:00:00 17.3 8 Noroeste 22 Noroeste -- -- -- 68
2020-10-25 02:00:00 17 3 Noroeste 10 Noroeste -- -- -- 68
2020-10-25 01:00:00 18.6 7 Noroeste 24 Noroeste -- -- -- 60
2020-10-25 00:00:00 18.8 8 Norte 25 Norte -- -- -- 60
2020-10-24 23:00:00 18.9 8 Norte 18 Noroeste -- -- -- 58
2020-10-24 22:00:00 19.2 7 Noroeste 21 Noroeste -- -- -- 57
2020-10-24 21:00:00 19.7 3 Norte 14 Noroeste -- -- -- 57
2020-10-24 20:00:00 19.6 6 Noroeste 16 Noroeste -- -- -- 56
2020-10-24 19:00:00 20.7 6 Sudoeste 19 Sudoeste -- -- -- 55
2020-10-24 18:00:00 22.3 8 Sudoeste 21 Oeste -- -- -- 50
2020-10-24 17:00:00 23.2 5 Sudoeste 18 Sudoeste -- -- -- 46
2020-10-24 16:00:00 22.8 10 Sudoeste 19 Sudoeste -- -- -- 39
2020-10-24 15:00:00 22.4 9 Sudoeste 20 Sudoeste -- -- -- 47
2020-10-24 14:00:00 22 8 Sudoeste 19 Sur -- -- -- 49
2020-10-24 13:00:00 21.7 7 Sudoeste 16 Sur -- -- -- 53
2020-10-24 12:00:00 21.6 5 Sur 11 Sudoeste -- -- -- 50
2020-10-24 11:00:00 20.4 6 Sudoeste 14 Sur -- -- -- 59
2020-10-24 10:00:00 19.1 6 Oeste 32 Noroeste -- -- -- 63
2020-10-24 09:00:00 17.4 11 Noroeste 31 Noroeste -- -- -- 69
2020-10-24 08:00:00 17.1 13 Noroeste 28 Noroeste -- -- -- 71
2020-10-24 07:00:00 16.6 13 Noroeste 32 Noroeste -- -- -- 74
2020-10-24 06:00:00 17 14 Noroeste 28 Norte -- -- -- 73
2020-10-24 05:00:00 17.2 12 Noroeste 26 Norte -- -- -- 72
2020-10-24 04:00:00 17.5 8 Noroeste 23 Norte -- -- -- 72
2020-10-24 03:00:00 17.7 9 Noroeste 23 Noroeste -- -- -- 72
2020-10-24 02:00:00 17.7 9 Noroeste 22 Noroeste -- -- -- 70
2020-10-24 01:00:00 18.1 8 Norte 21 Norte -- -- -- 68
2020-10-24 00:00:00 18 7 Noroeste 15 Norte -- -- -- 68
2020-10-23 23:00:00 18 6 Noroeste 14 Noroeste -- -- -- 70
2020-10-23 22:00:00 18.1 4 Noroeste 12 Noroeste -- -- -- 72
2020-10-23 21:00:00 17.9 4 Noroeste 9 Norte -- -- -- 72
2020-10-23 20:00:00 18.3 3 Noroeste 9 Noroeste -- -- -- 72
2020-10-23 19:00:00 19.9 3 Oeste 14 Oeste -- -- -- 71
2020-10-23 18:00:00 21.2 8 Sudoeste 15 Sudoeste -- -- -- 69
2020-10-23 17:00:00 19.1 3 Sudoeste 17 Oeste -- -- -- 81
2020-10-23 16:00:00 19.8 8 Sudoeste 19 Sudoeste -- -- -- 75
2020-10-23 15:00:00 20.8 9 Sudoeste 19 Sudoeste -- -- -- 71
2020-10-23 14:00:00 21.3 6 Sudoeste 16 Sudeste -- -- -- 65
2020-10-23 13:00:00 20.6 7 Sudoeste 15 Sudoeste -- -- -- 70
2020-10-23 12:00:00 20.7 6 Sudoeste 14 Oeste -- -- -- 69
2020-10-23 11:00:00 18.3 6 Norte 16 Noroeste -- -- -- 91
2020-10-23 10:00:00 16 4 Nordeste 15 Norte -- -- -- 98
2020-10-23 09:00:00 13.7 0 Calma 5 Este -- -- -- 98
2020-10-23 08:00:00 14.1 0 Calma 3 Noroeste 0.2 -- -- 98
2020-10-23 07:00:00 14.3 0 Calma 4 Nordeste 0.2 -- -- 98
2020-10-23 06:00:00 14.5 0 Calma 2 Sudoeste 0.4 -- -- 98
2020-10-23 05:00:00 15.4 0 Calma 7 Sudoeste 0 -- -- 97
2020-10-23 04:00:00 15.9 0 Calma 4 Oeste 0.2 -- -- 98
2020-10-23 03:00:00 15.9 0 Calma 3 Noroeste 0.2 -- -- 98
2020-10-23 02:00:00 16 0 Calma 2 Sudoeste 0 -- -- 97
2020-10-23 01:00:00 16 0 Calma 3 Nordeste 0 -- -- 97
2020-10-23 00:00:00 16.4 0 Calma 5 Oeste 0.2 -- -- 97
2020-10-22 23:00:00 16.7 0 Calma 4 Sudoeste 0 -- -- 97
2020-10-22 22:00:00 16.9 0 Calma 5 Este 0.2 -- -- 97
2020-10-22 21:00:00 16.9 4 Este 7 Sudeste 0 -- -- 97
2020-10-22 20:00:00 17 2 Este 7 Este 0.2 -- -- 97
2020-10-22 19:00:00 17.1 0 Calma 5 Sudeste 0.2 -- -- 97
2020-10-22 18:00:00 16.9 0 Calma 7 Nordeste 0 -- -- 97
2020-10-22 17:00:00 16.8 3 Nordeste 7 Nordeste 0.2 -- -- 96
2020-10-22 16:00:00 16.7 3 Nordeste 8 Este 0.2 -- -- 96
2020-10-22 15:00:00 16.6 2 Sudeste 10 Este 0 -- -- 96
2020-10-22 14:00:00 16.7 2 Este 11 Sudeste 0.2 -- -- 96
2020-10-22 13:00:00 16.5 4 Sudeste 10 Este 0 -- -- 96
2020-10-22 12:00:00 16.2 4 Nordeste 9 Sudeste 0.2 -- -- 95
2020-10-22 11:00:00 16.1 3 Nordeste 9 Nordeste 0.2 -- -- 95
2020-10-22 10:00:00 16 2 Nordeste 6 Nordeste 0.2 -- -- 95
2020-10-22 09:00:00 16.2 2 Nordeste 5 Este 0.2 -- -- 95
2020-10-22 08:00:00 16 0 Calma 5 Noroeste 0.4 -- -- 94
2020-10-22 07:00:00 16.3 0 Calma 6 Oeste 0.4 -- -- 92
2020-10-22 06:00:00 17.1 0 Calma 5 Noroeste 0 -- -- 87
2020-10-22 05:00:00 17.6 0 Calma 7 Este 0 -- -- 81
2020-10-22 04:00:00 17.7 4 Este 10 Nordeste 0 -- -- 80
2020-10-22 03:00:00 17.5 4 Nordeste 9 Nordeste 0 -- -- 83
2020-10-22 02:00:00 16.9 3 Norte 8 Norte 0 -- -- 88
2020-10-22 01:00:00 17.3 0 Calma 3 Oeste 0 -- -- 86
2020-10-22 00:00:00 18 0 Calma 8 Oeste 0 -- -- 82
2020-10-21 23:00:00 18.9 3 Oeste 13 Oeste 0 -- -- 77
2020-10-21 22:00:00 18.9 4 Oeste 11 Oeste 0 -- -- 81
2020-10-21 21:00:00 19 3 Oeste 8 Oeste 0 -- -- 84
2020-10-21 20:00:00 18.9 0 Calma 5 Sudoeste 0 -- -- 87
2020-10-21 19:00:00 19.1 0 Calma 12 Sudeste 0 -- -- 84
2020-10-21 18:00:00 20.2 3 Sudeste 10 Sur 0 -- -- 81
2020-10-21 17:00:00 20.8 3 Sur 14 Sudeste 0 -- -- 79
2020-10-21 16:00:00 21.4 5 Sur 14 Sur 0 -- -- 75
2020-10-21 15:00:00 21.5 4 Sur 12 Sudeste 0 -- -- 77
2020-10-21 14:00:00 20.9 3 Sur 17 Sudeste 0 -- -- 79
2020-10-21 13:00:00 21.1 6 Sudoeste 17 Sudoeste 0 -- -- 82
2020-10-21 12:00:00 18.8 0 Calma 6 Sudeste 0 -- -- 94
2020-10-21 11:00:00 18.5 0 Calma 5 Sudeste 0 -- -- 95
2020-10-21 10:00:00 17.7 0 Calma 9 Sur 0.2 -- -- 96
2020-10-21 09:00:00 17.5 0 Calma 19 Sudoeste 2.6 -- -- 96
2020-10-21 08:00:00 17.6 2 Oeste 6 Sur 0.2 -- -- 96
2020-10-21 07:00:00 17.5 0 Calma 4 Oeste 0 -- -- 96
2020-10-21 06:00:00 17.6 0 Calma 4 Sudoeste 0.2 -- -- 95
2020-10-21 05:00:00 17.4 0 Calma 9 Oeste 0 -- -- 94
2020-10-21 04:00:00 17.4 2 Oeste 12 Sudoeste 0 -- -- 93
2020-10-21 03:00:00 18.1 5 Sudoeste 12 Oeste 0 -- -- 93
2020-10-21 02:00:00 18 3 Sudeste 10 Sudoeste 0.2 -- -- 93
2020-10-21 01:00:00 17.9 0 Calma 15 Sudoeste 4 -- -- 92
2020-10-21 00:00:00 18.3 0 Calma 5 Este 0 -- -- 90
2020-10-20 23:00:00 18.9 0 Calma 8 Sudoeste 0.2 -- -- 84
2020-10-20 22:00:00 19.6 2 Sudoeste 14 Sudoeste 0 -- -- 74
2020-10-20 21:00:00 20.2 3 Sudoeste 14 Sudoeste 0 -- -- 67
2020-10-20 20:00:00 19.8 3 Oeste 11 Oeste 0 -- -- 70
2020-10-20 19:00:00 19.8 2 Norte 11 Oeste 0 -- -- 73
2020-10-20 18:00:00 19.3 4 Sudoeste 12 Oeste 0 -- -- 79
2020-10-20 17:00:00 19.2 3 Este 14 Oeste 0 -- -- 81
2020-10-20 16:00:00 19.3 3 Oeste 15 Sur 0 -- -- 79
2020-10-20 15:00:00 20.3 5 Este 17 Sur 0 -- -- 73
2020-10-20 14:00:00 19.9 4 Sur 14 Sudeste 0 -- -- 77
2020-10-20 13:00:00 19.8 4 Este 14 Este 0 -- -- 79
2020-10-20 12:00:00 19.2 5 Este 10 Este 0 -- -- 78
2020-10-20 11:00:00 18.5 3 Este 9 Este 0 -- -- 79
2020-10-20 10:00:00 18 0 Calma 5 Oeste 0 -- -- 87
2020-10-20 09:00:00 17.2 0 Calma 3 Nordeste 0 -- -- 89
2020-10-20 08:00:00 17.2 0 Calma 5 Este 0 -- -- 88
2020-10-20 07:00:00 17 0 Calma 3 Noroeste 0 -- -- 87
2020-10-20 06:00:00 17.1 0 Calma 3 Oeste 0 -- -- 85
2020-10-20 05:00:00 17.8 0 Calma 6 Norte 0 -- -- 85
2020-10-20 04:00:00 17.8 2 Oeste 5 Oeste 0 -- -- 86
2020-10-20 03:00:00 17.5 0 Calma 5 Nordeste 0 -- -- 85
2020-10-20 02:00:00 17.2 0 Calma 5 Nordeste 0 -- -- 84
2020-10-20 01:00:00 17.1 0 Calma 4 Norte 0 -- -- 83
2020-10-20 00:00:00 17.3 2 Oeste 4 Oeste 0 -- -- 82
2020-10-19 23:00:00 17.5 0 Calma 3 Sur 0 -- -- 81
2020-10-19 22:00:00 17.6 0 Calma 5 Sudoeste 0 -- -- 82
2020-10-19 21:00:00 17.2 0 Calma 2 Nordeste 0 -- -- 81
2020-10-19 20:00:00 18 0 Calma 5 Este 0 -- -- 76
2020-10-19 19:00:00 19.1 2 Sur 11 Sur 0 -- -- 73
2020-10-19 18:00:00 20 5 Sur 17 Sudeste 0 -- -- 68
2020-10-19 17:00:00 20.9 7 Sudoeste 16 Sudeste 0 -- -- 62
2020-10-19 16:00:00 21.4 6 Sur 21 Este 0 -- -- 59
2020-10-19 15:00:00 21.4 4 Sur 16 Sudoeste 0 -- -- 55
2020-10-19 14:00:00 21.5 6 Sur 21 Sudeste 0 -- -- 51
2020-10-19 13:00:00 21.7 6 Sudeste 16 Sudeste 0 -- -- 40
2020-10-19 12:00:00 22 5 Este 13 Este 0 -- -- 32
2020-10-19 11:00:00 21 3 Sudeste 9 Nordeste 0 -- -- 35
2020-10-19 10:00:00 18 0 Calma 3 Este 0 -- -- 50
2020-10-19 09:00:00 15.2 0 Calma 4 Noroeste 0 -- -- 51
2020-10-19 08:00:00 15.1 0 Calma 4 Noroeste 0 -- -- 52
2020-10-19 07:00:00 14.9 0 Calma 6 Oeste 0 -- -- 50
2020-10-19 06:00:00 15.4 0 Calma 5 Noroeste 0 -- -- 49
2020-10-19 05:00:00 15.6 0 Calma 5 Noroeste 0 -- -- 49
2020-10-19 04:00:00 15.7 0 Calma 7 Nordeste 0 -- -- 49
2020-10-19 03:00:00 15.7 0 Calma 6 Norte 0 -- -- 51
2020-10-19 02:00:00 15.2 0 Calma 6 Noroeste 0 -- -- 57
2020-10-19 01:00:00 15 0 Calma 5 Noroeste 0 -- -- 62
2020-10-19 00:00:00 15.3 0 Calma 10 Nordeste 0 -- -- 67
2020-10-18 23:00:00 15.2 0 Calma 3 Noroeste 0 -- -- 59
2020-10-18 22:00:00 15.3 2 Noroeste 4 Nordeste 0 -- -- 51
2020-10-18 21:00:00 15.7 2 Noroeste 4 Noroeste 0 -- -- 55
2020-10-18 20:00:00 17 0 Calma 5 Nordeste 0 -- -- 57
2020-10-18 19:00:00 19.2 3 Este 7 Sudeste 0 -- -- 48
2020-10-18 18:00:00 21.3 4 Sudeste 10 Sudeste 0 -- -- 44
2020-10-18 17:00:00 20.9 5 Sudeste 12 Sudeste 0 -- -- 58
2020-10-18 16:00:00 20.7 6 Sudeste 14 Sudeste 0 -- -- 61
2020-10-18 15:00:00 21.5 4 Sur 13 Sudeste 0 -- -- 48
2020-10-18 14:00:00 20.5 5 Sudeste 13 Este 0 -- -- 49
2020-10-18 13:00:00 20.3 8 Sudeste 14 Nordeste 0 -- -- 55
2020-10-18 12:00:00 20.1 6 Este 15 Nordeste 0 -- -- 53
2020-10-18 11:00:00 19.3 4 Este 8 Nordeste 0 -- -- 60
2020-10-18 10:00:00 17.4 3 Nordeste 8 Nordeste 0 -- -- 70
2020-10-18 09:00:00 13.3 0 Calma 5 Oeste 0 -- -- 83
2020-10-18 08:00:00 12.7 0 Calma 2 Noroeste 0 -- -- 83
2020-10-18 07:00:00 12.7 0 Calma 3 Sudoeste 0 -- -- 88
2020-10-18 06:00:00 12.9 0 Calma 2 Noroeste 0 -- -- 91
2020-10-18 05:00:00 13.5 0 Calma 2 Sudoeste 0 -- -- 92
2020-10-18 04:00:00 13.7 0 Calma 3 Noroeste 0 -- -- 92
2020-10-18 03:00:00 13.8 0 Calma 2 Noroeste 0 -- -- 91
2020-10-18 02:00:00 14.3 0 Calma 3 Norte 0 -- -- 91
2020-10-18 01:00:00 14.8 0 Calma 5 Nordeste 0 -- -- 89
2020-10-18 00:00:00 15 2 Nordeste 5 Nordeste 0 -- -- 88
2020-10-17 23:00:00 15.3 0 Calma 2 Nordeste 0 -- -- 86
2020-10-17 22:00:00 15.7 0 Calma 3 Nordeste 0 -- -- 84
2020-10-17 21:00:00 16.4 0 Calma 5 Nordeste 0 -- -- 81
2020-10-17 20:00:00 17.4 0 Calma 6 Sudeste 0 -- -- 73
2020-10-17 19:00:00 19.5 6 Sudeste 16 Sudoeste 0 -- -- 64
2020-10-17 18:00:00 21.2 8 Sudoeste 20 Sudoeste 0 -- -- 50
2020-10-17 17:00:00 21.2 7 Sudoeste 19 Oeste 0 -- -- 53
2020-10-17 16:00:00 21.2 7 Sudoeste 18 Sur 0 -- -- 55
2020-10-17 15:00:00 20.5 8 Sudoeste 18 Sudoeste 0 -- -- 50
2020-10-17 14:00:00 20 8 Sur 18 Sudeste 0 -- -- 53
2020-10-17 13:00:00 19.8 7 Sudeste 13 Sudeste 0 -- -- 53
2020-10-17 12:00:00 19.7 4 Sur 10 Este 0 -- -- 50
2020-10-17 11:00:00 19 4 Sudeste 8 Sudeste 0 -- -- 48
2020-10-17 10:00:00 17.6 3 Este 5 Este 0 -- -- 53
2020-10-17 09:00:00 15.2 2 Oeste 9 Oeste 0 -- -- 57
2020-10-17 08:00:00 14.8 5 Oeste 11 Oeste 0 -- -- 59
2020-10-17 07:00:00 12.5 0 Calma 4 Oeste 0 -- -- 71
2020-10-17 06:00:00 13.1 0 Calma 4 Oeste 0 -- -- 70
2020-10-17 05:00:00 14.1 0 Calma 8 Oeste 0 -- -- 69
2020-10-17 04:00:00 12.8 0 Calma 2 Noroeste 0 -- -- 68
2020-10-17 03:00:00 13.2 0 Calma 3 Nordeste 0 -- -- 65
2020-10-17 02:00:00 13.4 0 Calma 4 Oeste 0 -- -- 71
2020-10-17 01:00:00 13.9 0 Calma 4 Sudoeste 0 -- -- 81
2020-10-17 00:00:00 14.3 0 Calma 2 Noroeste 0 -- -- 85
2020-10-16 23:00:00 14.6 0 Calma 2 Norte 0 -- -- 84
2020-10-16 22:00:00 15.1 0 Calma 2 Nordeste 0 -- -- 80
2020-10-16 21:00:00 16 0 Calma 6 Sudoeste 0 -- -- 74
2020-10-16 20:00:00 17.2 3 Sudoeste 13 Sur 0 -- -- 69
2020-10-16 19:00:00 18 4 Sur 10 Sudeste 0 -- -- 66
2020-10-16 18:00:00 19.6 5 Sur 11 Sudeste 0 -- -- 61
2020-10-16 17:00:00 20.6 4 Sudeste 13 Sudeste 0 -- -- 54
2020-10-16 16:00:00 19.9 6 Sudeste 14 Sudeste 0 -- -- 57
2020-10-16 15:00:00 20.7 6 Sudeste 15 Este 0 -- -- 60
2020-10-16 14:00:00 20.9 5 Este 14 Sudeste 0 -- -- 55
2020-10-16 13:00:00 20.5 8 Sudeste 14 Sudeste 0 -- -- 43
2020-10-16 12:00:00 20.3 6 Sudeste 16 Nordeste 0 -- -- 48
2020-10-16 11:00:00 19.8 5 Nordeste 13 Este 0 -- -- 50
2020-10-16 10:00:00 18.3 6 Nordeste 13 Nordeste 0 -- -- 54
2020-10-16 09:00:00 14.7 0 Calma 5 Nordeste 0 -- -- 60
2020-10-16 08:00:00 16 2 Nordeste 14 Noroeste 0 -- -- 47
2020-10-16 07:00:00 18.2 8 Noroeste 32 Noroeste 0 -- -- 33
2020-10-16 06:00:00 18 12 Noroeste 29 Norte 0 -- -- 33
2020-10-16 05:00:00 17.8 13 Noroeste 30 Noroeste 0 -- -- 33
2020-10-16 04:00:00 18.1 13 Noroeste 30 Noroeste 0 -- -- 31
2020-10-16 03:00:00 18.2 13 Noroeste 31 Noroeste 0 -- -- 30
2020-10-16 02:00:00 18.5 10 Noroeste 24 Noroeste 0 -- -- 29
2020-10-16 01:00:00 19 8 Noroeste 23 Norte 0 -- -- 28
2020-10-16 00:00:00 18.9 9 Noroeste 17 Noroeste 0 -- -- 28
2020-10-15 23:00:00 19.3 8 Noroeste 19 Norte 0 -- -- 27
2020-10-15 22:00:00 19.4 6 Noroeste 12 Noroeste 0 -- -- 28
2020-10-15 21:00:00 19 3 Noroeste 9 Noroeste 0 -- -- 31
2020-10-15 20:00:00 20.4 2 Noroeste 19 Sudoeste 0 -- -- 37
2020-10-15 19:00:00 21.4 8 Sudoeste 22 Sudoeste 0 -- -- 38
2020-10-15 18:00:00 22.9 8 Sudoeste 29 Oeste 0 -- -- 32
2020-10-15 17:00:00 22.9 13 Sudoeste 28 Sudoeste 0 -- -- 35
2020-10-15 16:00:00 23.3 11 Sudoeste 26 Sudoeste 0 -- -- 35
2020-10-15 15:00:00 23.2 12 Sudoeste 24 Oeste 0 -- -- 31
2020-10-15 14:00:00 23.2 11 Sudoeste 19 Sudoeste 0 -- -- 30
2020-10-15 13:00:00 23.3 5 Sudeste 19 Noroeste 0 -- -- 28
2020-10-15 12:00:00 22.9 6 Norte 18 Noroeste 0 -- -- 25
2020-10-15 11:00:00 21.9 5 Norte 22 Noroeste 0 -- -- 28
2020-10-15 10:00:00 19.7 8 Noroeste 24 Noroeste 0 -- -- 32
2020-10-15 09:00:00 17.8 6 Noroeste 22 Noroeste 0 -- -- 35
2020-10-15 08:00:00 17.5 7 Noroeste 23 Noroeste 0 -- -- 36
2020-10-15 07:00:00 17.9 6 Noroeste 23 Noroeste 0 -- -- 35
2020-10-15 06:00:00 18 11 Noroeste 24 Noroeste 0 -- -- 35
2020-10-15 05:00:00 17.9 6 Noroeste 24 Noroeste 0 -- -- 37
2020-10-15 04:00:00 18.1 9 Noroeste 23 Noroeste 0 -- -- 36
2020-10-15 03:00:00 18.1 8 Noroeste 18 Noroeste 0 -- -- 37
2020-10-15 02:00:00 18.1 7 Noroeste 17 Noroeste 0 -- -- 38
2020-10-15 01:00:00 18.9 5 Noroeste 14 Noroeste 0 -- -- 38
2020-10-15 00:00:00 19.7 7 Noroeste 19 Noroeste 0 -- -- 35
2020-10-14 23:00:00 19.8 7 Noroeste 18 Noroeste 0 -- -- 37
2020-10-14 22:00:00 20.1 2 Noroeste 19 Nordeste 0 -- -- 36
2020-10-14 21:00:00 21.1 6 Norte 23 Nordeste 0 -- -- 31
2020-10-14 20:00:00 21.5 5 Noroeste 23 Noroeste 0 -- -- 31
2020-10-14 19:00:00 22.6 8 Norte 35 Nordeste 0 -- -- 29
2020-10-14 18:00:00 24.2 9 Norte 28 Nordeste 0 -- -- 27
2020-10-14 17:00:00 25 9 Norte 38 Nordeste 0 -- -- 28
2020-10-14 16:00:00 26.4 8 Norte 27 Nordeste 0 -- -- 25
2020-10-14 15:00:00 25 9 Sudeste 26 Nordeste 0 -- -- 31
2020-10-14 14:00:00 22.9 11 Sudoeste 23 Sudoeste 0 -- -- 43
2020-10-14 13:00:00 21.5 12 Sudoeste 25 Sudoeste 0 -- -- 51
2020-10-14 12:00:00 23.3 8 Sur 19 Nordeste 0 -- -- 48
2020-10-14 11:00:00 22.7 7 Norte 22 Nordeste 0 -- -- 39
2020-10-14 10:00:00 20.6 4 Nordeste 17 Norte 0 -- -- 50
2020-10-14 09:00:00 18 3 Oeste 11 Nordeste 0 -- -- 53
2020-10-14 08:00:00 17.2 0 Calma 10 Oeste 0 -- -- 53
2020-10-14 07:00:00 15.9 3 Sudoeste 9 Sudoeste 0 -- -- 57
2020-10-14 06:00:00 15.6 0 Calma 9 Sudoeste 0 -- -- 60
2020-10-14 05:00:00 15.8 0 Calma 16 Oeste 0 -- -- 74
2020-10-14 04:00:00 15.2 0 Calma 8 Noroeste 0 -- -- 72
2020-10-14 03:00:00 15.1 0 Calma 4 Oeste 0 -- -- 78
2020-10-14 02:00:00 15.9 0 Calma 8 Sudoeste 0 -- -- 76
2020-10-14 01:00:00 15.5 0 Calma 4 Oeste 0 -- -- 80
2020-10-14 00:00:00 16.1 0 Calma 10 Oeste 0 -- -- 77
2020-10-13 23:00:00 15.6 0 Calma 2 Sudoeste 0 -- -- 75
2020-10-13 22:00:00 16.6 0 Calma 4 Oeste 0 -- -- 83
2020-10-13 21:00:00 17.5 0 Calma 5 Nordeste 0 -- -- 80
2020-10-13 20:00:00 19 0 Calma 16 Sudoeste 0 -- -- 74
2020-10-13 19:00:00 19.7 9 Sudoeste 21 Sudoeste 0 -- -- 73
2020-10-13 18:00:00 21.2 10 Sudoeste 23 Sudoeste 0 -- -- 65
2020-10-13 17:00:00 21.7 12 Sudoeste 23 Sudoeste 0 -- -- 61
2020-10-13 16:00:00 22.1 11 Sudoeste 21 Sudoeste 0 -- -- 57
2020-10-13 15:00:00 22.3 10 Sudoeste 19 Sudoeste 0 -- -- 53
2020-10-13 14:00:00 21.2 9 Sudoeste 18 Sur 0 -- -- 56
2020-10-13 13:00:00 21.1 6 Sur 14 Sudeste 0 -- -- 57
2020-10-13 12:00:00 20.8 5 Sudeste 12 Sudeste 0 -- -- 59
2020-10-13 11:00:00 -- -- -- -- -- -- -- -- --
2020-10-13 10:00:00 -- -- -- -- -- -- -- -- --
2020-10-13 09:00:00 14.6 0 Calma 2 Oeste 0 -- -- 82
2020-10-13 08:00:00 14.5 0 Calma 4 Oeste 0 -- -- 82
2020-10-13 07:00:00 14.8 0 Calma 6 Noroeste 0 -- -- 78
2020-10-13 06:00:00 15.2 0 Calma 6 Noroeste 0 -- -- 77
2020-10-13 05:00:00 14.9 0 Calma 3 Noroeste 0 -- -- 72
2020-10-13 04:00:00 15.6 0 Calma 3 Noroeste 0 -- -- 68
2020-10-13 03:00:00 16.2 0 Calma 4 Nordeste 0 -- -- 67
2020-10-13 02:00:00 16.2 0 Calma 4 Nordeste 0 -- -- 70
2020-10-13 01:00:00 -- -- -- -- -- -- -- -- --
2020-10-13 00:00:00 15.9 0 Calma 4 Noroeste 0 -- -- 81
2020-10-12 23:00:00 16.5 0 Calma 3 Noroeste 0 -- -- 81
2020-10-12 22:00:00 16.8 0 Calma 4 Oeste 0 -- -- 74
2020-10-12 21:00:00 17.1 0 Calma 5 Oeste 0 -- -- 73
2020-10-12 20:00:00 18.1 0 Calma 7 Sudoeste 0 -- -- 68
2020-10-12 19:00:00 19.3 4 Sur 10 Sudeste 0 -- -- 60
2020-10-12 18:00:00 -- -- -- -- -- -- -- -- --
2020-10-12 17:00:00 21.2 5 Sur 16 Este 0 -- -- 59
2020-10-12 16:00:00 21.5 6 Este 16 Sudeste 0 -- -- 57
2020-10-12 15:00:00 21.7 7 Sudeste 18 Sudeste 0 -- -- 52
2020-10-12 14:00:00 22.2 7 Sudeste 15 Este 0 -- -- 51
2020-10-12 13:00:00 21.7 6 Este 15 Sudeste 0 -- -- 48
2020-10-12 12:00:00 21.8 7 Este 17 Sudeste 0 -- -- 63
2020-10-12 11:00:00 20.8 6 Este 12 Este 0 -- -- 70
2020-10-12 10:00:00 19.2 4 Este 9 Nordeste 0 -- -- 81
2020-10-12 09:00:00 17.2 0 Calma 4 Este 0 -- -- 88
2020-10-12 08:00:00 17.5 0 Calma 7 Nordeste 0 -- -- 89
2020-10-12 07:00:00 17.3 0 Calma 7 Norte 0 -- -- 91
2020-10-12 06:00:00 16.4 0 Calma 4 Norte 0 -- -- 91
2020-10-12 05:00:00 15.9 0 Calma 5 Nordeste 0 -- -- 89
2020-10-12 04:00:00 -- -- -- -- -- -- -- -- --
2020-10-12 03:00:00 15.6 0 Calma 3 Noroeste 0 -- -- 86
2020-10-12 02:00:00 15.7 0 Calma 3 Noroeste 0 -- -- 85
2020-10-12 01:00:00 15.9 0 Calma 3 Norte 0 -- -- 85
2020-10-12 00:00:00 16.1 0 Calma 2 Oeste 0 -- -- 82
2020-10-11 23:00:00 16.9 0 Calma 2 Norte 0 -- -- 76
2020-10-11 22:00:00 18.1 0 Calma 3 Sudoeste 0 -- -- 71
2020-10-11 21:00:00 -- -- -- -- -- -- -- -- --
2020-10-11 20:00:00 -- -- -- -- -- -- -- -- --
2020-10-11 19:00:00 21.9 6 Sudoeste 12 Sudoeste 0 -- -- 62
2020-10-11 18:00:00 23.7 4 Sudoeste 13 Sur 0 -- -- 57
2020-10-11 17:00:00 23.2 5 Sudoeste 14 Oeste 0 -- -- 60
2020-10-11 16:00:00 22.8 8 Sur 17 Sur 0 -- -- 62
2020-10-11 15:00:00 22.7 8 Sudeste 14 Sudeste 0 -- -- 62
2020-10-11 14:00:00 21.7 5 Sudeste 11 Sudeste 0 -- -- 69
2020-10-11 13:00:00 21.1 4 Sudeste 10 Este 0 -- -- 70
2020-10-11 12:00:00 21 5 Sudeste 10 Este 0 -- -- 70
2020-10-11 11:00:00 20.3 3 Este 6 Este 0 -- -- 75
2020-10-11 10:00:00 19 0 Calma 5 Nordeste 0 -- -- 88
2020-10-11 09:00:00 18.3 0 Calma 0 Calma 0 -- -- 91
2020-10-11 08:00:00 17.9 0 Calma -- -- 0 -- -- 93
2020-10-11 07:00:00 17.5 0 Calma -- -- 0 -- -- 93
2020-10-11 06:00:00 16.7 0 Calma 3 Sudoeste 0 -- -- 93
2020-10-11 05:00:00 16 0 Calma 2 Noroeste 0 -- -- 92
2020-10-11 04:00:00 16.2 0 Calma 3 Norte 0 -- -- 90
2020-10-11 03:00:00 16.4 0 Calma 2 Norte 0 -- -- 89
2020-10-11 02:00:00 16.8 0 Calma 2 Norte 0 -- -- 87
2020-10-11 01:00:00 17.4 0 Calma 3 Oeste 0 -- -- 83
2020-10-11 00:00:00 18.4 0 Calma 5 Oeste 0 -- -- 79
2020-10-10 23:00:00 18.7 2 Oeste 8 Oeste 0 -- -- 78
2020-10-10 22:00:00 18.9 2 Oeste 6 Oeste 0 -- -- 79
2020-10-10 21:00:00 19.2 0 Calma 6 Oeste 0 -- -- 79
2020-10-10 20:00:00 20.2 2 Sudoeste 7 Oeste 0 -- -- 77
2020-10-10 19:00:00 21 3 Sudoeste 10 Sudeste 0 -- -- 75
2020-10-10 18:00:00 21.9 5 Sudeste 12 Sudeste 0 -- -- 71
2020-10-10 17:00:00 21.9 6 Sudeste 15 Sudeste 0 -- -- 72
2020-10-10 16:00:00 22.4 9 Sudeste 13 Sur 0 -- -- 70
2020-10-10 15:00:00 22.7 5 Sudeste 13 Este 0 -- -- 66
2020-10-10 14:00:00 22.6 7 Sudeste 17 Sudeste 0 -- -- 67
2020-10-10 13:00:00 21.3 6 Sudeste 13 Sudeste 0 -- -- 73
2020-10-10 12:00:00 21.2 4 Este 10 Sudeste 0 -- -- 73
2020-10-10 11:00:00 21.3 7 Sudeste 10 Sudeste 0 -- -- 74
2020-10-10 10:00:00 19.6 2 Este 5 Este 0 -- -- 88
2020-10-10 09:00:00 17.1 0 Calma 4 Sudoeste 0 -- -- 92
2020-10-10 08:00:00 16.7 0 Calma 2 Noroeste 0 -- -- 90
2020-10-10 07:00:00 16.7 0 Calma 0 Calma 0 -- -- 88
2020-10-10 06:00:00 17.1 0 Calma 3 Sudoeste 0 -- -- 86
2020-10-10 05:00:00 17.2 0 Calma 4 Oeste 0 -- -- 87
2020-10-10 04:00:00 16.7 0 Calma 3 Norte 0 -- -- 89
2020-10-10 03:00:00 16.7 0 Calma 3 Este 0 -- -- 88
2020-10-10 02:00:00 17.2 0 Calma 5 Nordeste 0 -- -- 86
2020-10-10 01:00:00 17.9 0 Calma 6 Oeste 0 -- -- 83
2020-10-10 00:00:00 17.3 0 Calma 3 Sudoeste 0 -- -- 86
2020-10-09 23:00:00 17.7 0 Calma 2 Sudoeste 0 -- -- 85
2020-10-09 22:00:00 18.2 0 Calma 2 Oeste 0 -- -- 83
2020-10-09 21:00:00 19.1 0 Calma 2 Oeste 0 -- -- 79
2020-10-09 20:00:00 20.5 0 Calma 9 Sur 0 -- -- 74
2020-10-09 19:00:00 21.7 4 Sudoeste 13 Sudoeste 0 -- -- 68
2020-10-09 18:00:00 22.7 4 Sur 15 Oeste 0 -- -- 65
2020-10-09 17:00:00 23.2 7 Sur 16 Sur 0 -- -- 62
2020-10-09 16:00:00 23.4 8 Sur 17 Sudeste 0 -- -- 62
2020-10-09 15:00:00 23.5 8 Sudoeste 18 Sudoeste 0 -- -- 63
2020-10-09 14:00:00 23.3 8 Sudoeste 18 Sudoeste 0 -- -- 64
2020-10-09 13:00:00 23.6 6 Sudoeste 20 Oeste 0 -- -- 63
2020-10-09 12:00:00 22.5 9 Sudoeste 18 Sudoeste 0 -- -- 70
2020-10-09 11:00:00 21.3 8 Sudoeste 17 Sudoeste 0 -- -- 76
2020-10-09 10:00:00 20.8 10 Sudoeste 16 Sudoeste 0 -- -- 80
2020-10-09 09:00:00 18.5 0 Calma 6 Oeste 0 -- -- 89
2020-10-09 08:00:00 17.2 0 Calma 3 Oeste 0 -- -- 91
2020-10-09 07:00:00 17.6 0 Calma 2 Sudoeste 0 -- -- 89
2020-10-09 06:00:00 18.1 0 Calma 2 Noroeste 0 -- -- 86
2020-10-09 05:00:00 18.4 0 Calma 5 Nordeste 0 -- -- 84
2020-10-09 04:00:00 18.7 0 Calma 4 Nordeste 0 -- -- 82
2020-10-09 03:00:00 18.6 0 Calma 8 Sudeste 0 -- -- 75
2020-10-09 02:00:00 18.5 0 Calma 5 Noroeste 0 -- -- 68
2020-10-09 01:00:00 18.5 0 Calma 5 Sudeste 0 -- -- 64
2020-10-09 00:00:00 19.4 0 Calma 6 Oeste 0 -- -- 59
2020-10-08 23:00:00 20.6 0 Calma 7 Oeste 0 -- -- 55
2020-10-08 22:00:00 20.6 2 Oeste 6 Oeste 0 -- -- 59
2020-10-08 21:00:00 20.7 0 Calma 5 Oeste 0 -- -- 50
2020-10-08 20:00:00 21.8 3 Oeste 8 Oeste 0 -- -- 47
2020-10-08 19:00:00 23.6 0 Calma 12 Sur 0 -- -- 43
2020-10-08 18:00:00 25.1 4 Sudoeste 14 Sur 0 -- -- 39
2020-10-08 17:00:00 25.6 7 Sudoeste 16 Oeste 0 -- -- 42
2020-10-08 16:00:00 25.5 5 Sur 15 Sudeste 0 -- -- 42
2020-10-08 15:00:00 25.4 4 Sur 17 Sudeste 0 -- -- 44
2020-10-08 14:00:00 25.2 6 Sur 14 Sur 0 -- -- 45
2020-10-08 13:00:00 25 6 Sudeste 19 Sudeste 0 -- -- 46
2020-10-08 12:00:00 24.8 5 Sur 14 Sudeste 0 -- -- 44
2020-10-08 11:00:00 24.6 4 Sudeste 13 Este 0 -- -- 40
2020-10-08 10:00:00 23.1 6 Este 14 Nordeste 0 -- -- 45
2020-10-08 09:00:00 19.7 0 Calma 8 Nordeste 0 -- -- 51
2020-10-08 08:00:00 18.7 0 Calma 5 Nordeste 0 -- -- 45
2020-10-08 07:00:00 18.5 0 Calma 4 Noroeste 0 -- -- 44
2020-10-08 06:00:00 17.6 0 Calma 3 Noroeste 0 -- -- 45
2020-10-08 05:00:00 18.8 0 Calma 7 Oeste 0 -- -- 42
2020-10-08 04:00:00 19.3 0 Calma 3 Sudoeste 0 -- -- 40
2020-10-08 03:00:00 18.7 0 Calma 3 Oeste 0 -- -- 40
2020-10-08 02:00:00 18.4 0 Calma 2 Oeste 0 -- -- 36
2020-10-08 01:00:00 19.6 0 Calma 3 Sudoeste 0 -- -- 35
2020-10-08 00:00:00 19.7 0 Calma 4 Oeste 0 -- -- 32
2020-10-07 23:00:00 19.5 0 Calma 2 Sudoeste 0 -- -- 34
2020-10-07 22:00:00 19.7 0 Calma 2 Noroeste 0 -- -- 40
2020-10-07 21:00:00 19.8 0 Calma 3 Sudoeste 0 -- -- 43
2020-10-07 20:00:00 21.3 0 Calma 5 Sur 0 -- -- 43
2020-10-07 19:00:00 24 0 Calma 9 Sur 0 -- -- 38
2020-10-07 18:00:00 25.2 4 Sur 13 Sur 0 -- -- 36
2020-10-07 17:00:00 25 6 Sur 13 Sudeste 0 -- -- 36
2020-10-07 16:00:00 25 6 Sur 14 Sur 0 -- -- 37
2020-10-07 15:00:00 25.4 8 Sur 17 Sur 0 -- -- 35
2020-10-07 14:00:00 25.7 6 Sudoeste 17 Sudoeste 0 -- -- 36
2020-10-07 13:00:00 25.5 9 Sudoeste 15 Sudoeste 0 -- -- 36
2020-10-07 12:00:00 24.7 6 Sudoeste 11 Oeste 0 -- -- 38
2020-10-07 11:00:00 23.1 4 Sudeste 9 Oeste 0 -- -- 45
2020-10-07 10:00:00 21.2 4 Este 8 Sudoeste 0 -- -- 49
2020-10-07 09:00:00 16.8 0 Calma 4 Oeste 0 -- -- 57
2020-10-07 08:00:00 15.8 0 Calma 3 Sudoeste 0 -- -- 57
2020-10-07 07:00:00 15.9 2 Sudoeste 3 Sudoeste 0 -- -- 57
2020-10-07 06:00:00 15.9 0 Calma 2 Sudoeste 0 -- -- 58
2020-10-07 05:00:00 16 0 Calma 3 Sudeste 0 -- -- 59
2020-10-07 04:00:00 16.4 2 Oeste 9 Oeste 0 -- -- 57
2020-10-07 03:00:00 16.1 0 Calma 4 Noroeste 0 -- -- 61
2020-10-07 02:00:00 17.5 2 Oeste 9 Oeste 0 -- -- 55
2020-10-07 01:00:00 17.6 4 Oeste 13 Sudoeste 0 -- -- 68
2020-10-07 00:00:00 18.4 9 Oeste 13 Sudoeste 0 -- -- 62
2020-10-06 23:00:00 16.6 0 Calma 3 Sudoeste 0 -- -- 64
2020-10-06 22:00:00 17.1 0 Calma 3 Noroeste 0 -- -- 74
2020-10-06 21:00:00 17.6 0 Calma 3 Norte 0 -- -- 81
2020-10-06 20:00:00 18.9 0 Calma 6 Sur 0 -- -- 78
2020-10-06 19:00:00 19.8 2 Sudoeste 12 Sudeste 0 -- -- 73
2020-10-06 18:00:00 21.8 7 Sudeste 11 Sur 0 -- -- 57
2020-10-06 17:00:00 23.5 6 Sudeste 12 Este 0 -- -- 42
2020-10-06 16:00:00 23.2 6 Sudeste 13 Nordeste 0 -- -- 44
2020-10-06 15:00:00 23.3 4 Sudeste 15 Sudeste 0 -- -- 43
2020-10-06 14:00:00 23.3 8 Sudeste 14 Sudeste 0 -- -- 42
2020-10-06 13:00:00 23.4 7 Sudeste 14 Este 0 -- -- 43
2020-10-06 12:00:00 23.3 7 Este 16 Sudeste 0 -- -- 44
2020-10-06 11:00:00 22.7 8 Este 13 Este 0 -- -- 42
2020-10-06 10:00:00 21.3 5 Este 9 Este 0 -- -- 45
2020-10-06 09:00:00 16.9 2 Nordeste 8 Este 0 -- -- 58
2020-10-06 08:00:00 16 0 Calma 3 Sudoeste 0 -- -- 57
2020-10-06 07:00:00 16.4 0 Calma 3 Este 0 -- -- 57
2020-10-06 06:00:00 16.9 0 Calma 9 Nordeste 0 -- -- 57
2020-10-06 05:00:00 17.1 2 Nordeste 13 Nordeste 0 -- -- 61
2020-10-06 04:00:00 17.5 3 Norte 11 Nordeste 0 -- -- 62
2020-10-06 03:00:00 18.1 3 Norte 12 Nordeste 0 -- -- 58
2020-10-06 02:00:00 18.3 2 Norte 13 Nordeste 0 -- -- 58
2020-10-06 01:00:00 20.8 6 Este 31 Norte 0 -- -- 46
2020-10-06 00:00:00 22 11 Noroeste 33 Norte 0 -- -- 33
2020-10-05 23:00:00 22.4 10 Norte 30 Noroeste 0 -- -- 33
2020-10-05 22:00:00 22.4 7 Norte 31 Norte 0 -- -- 33
2020-10-05 21:00:00 22.7 7 Norte 24 Noroeste 0 -- -- 32
2020-10-05 20:00:00 23.4 10 Norte 36 Norte 0 -- -- 30
2020-10-05 19:00:00 24.3 5 Norte 21 Este 0 -- -- 29
2020-10-05 18:00:00 25.8 5 Norte 20 Nordeste 0 -- -- 27
2020-10-05 17:00:00 25.4 7 Este 31 Nordeste 0 -- -- 27
2020-10-05 16:00:00 26.2 9 Nordeste 26 Nordeste 0 -- -- 28
2020-10-05 15:00:00 25.8 12 Norte 38 Oeste 0 -- -- 27
2020-10-05 14:00:00 25.1 14 Norte 44 Norte 0 -- -- 30
2020-10-05 13:00:00 23.7 21 Norte 45 Oeste 0 -- -- 30
2020-10-05 12:00:00 22.2 18 Noroeste 51 Norte 0 -- -- 35
2020-10-05 11:00:00 21.2 11 Norte 44 Norte 0 -- -- 38
2020-10-05 10:00:00 19 15 Norte 42 Noroeste 0 -- -- 45
2020-10-05 09:00:00 17.8 9 Norte 36 Norte 0 -- -- 49
2020-10-05 08:00:00 17.2 8 Norte 36 Norte 0 -- -- 52
2020-10-05 07:00:00 17.6 13 Noroeste 33 Norte 0 -- -- 52
2020-10-05 06:00:00 18.2 7 Norte 31 Norte 0 -- -- 53
2020-10-05 05:00:00 18.7 8 Norte 28 Nordeste 0 -- -- 54
2020-10-05 04:00:00 19.3 5 Norte 17 Noroeste 0 -- -- 53
2020-10-05 03:00:00 19.6 3 Norte 14 Noroeste 0 -- -- 57
2020-10-05 02:00:00 19.6 2 Noroeste 12 Norte 0 -- -- 60
2020-10-05 01:00:00 19.7 2 Sudoeste 13 Norte 0 -- -- 60
2020-10-05 00:00:00 20.1 3 Noroeste 11 Noroeste 0 -- -- 55
2020-10-04 23:00:00 20.9 5 Noroeste 19 Noroeste 0 -- -- 50
2020-10-04 22:00:00 21.5 4 Noroeste 33 Noroeste 0 -- -- 46
2020-10-04 21:00:00 22.1 4 Norte 21 Noroeste 0 -- -- 44
2020-10-04 20:00:00 23.2 5 Norte 28 Noroeste 0 -- -- 38
2020-10-04 19:00:00 24.5 7 Norte 30 Nordeste 0 -- -- 35
2020-10-04 18:00:00 25.9 6 Nordeste 22 Este 0 -- -- 32
2020-10-04 17:00:00 23.5 9 Oeste 30 Sudoeste 0 -- -- 45
2020-10-04 16:00:00 23.6 8 Sudoeste 30 Oeste 0 -- -- 41
2020-10-04 15:00:00 23.6 8 Sur 23 Oeste 0 -- -- 39
2020-10-04 14:00:00 22.5 5 Sudoeste 22 Sudoeste 0 -- -- 37
2020-10-04 13:00:00 22.9 7 Oeste 25 Sudoeste 0 -- -- 35
2020-10-04 12:00:00 21.8 6 Norte 21 Norte 0 -- -- 39
2020-10-04 11:00:00 20.3 6 Nordeste 18 Norte 0 -- -- 42
2020-10-04 10:00:00 19.2 7 Norte 23 Norte 0 -- -- 44
2020-10-04 09:00:00 16.7 4 Noroeste 15 Norte 0 -- -- 52
2020-10-04 08:00:00 16.2 5 Noroeste 19 Noroeste 0 -- -- 52
2020-10-04 07:00:00 16.4 7 Noroeste 20 Norte 0 -- -- 50
2020-10-04 06:00:00 17 12 Noroeste 22 Norte 0 -- -- 47
2020-10-04 05:00:00 17.2 9 Norte 21 Noroeste 0 -- -- 46
2020-10-04 04:00:00 17.5 8 Noroeste 26 Noroeste 0 -- -- 45
2020-10-04 03:00:00 18.1 10 Noroeste 24 Norte 0 -- -- 43
2020-10-04 02:00:00 18 10 Norte 27 Norte 0 -- -- 44
2020-10-04 01:00:00 18.4 9 Norte 23 Noroeste 0 -- -- 41
2020-10-04 00:00:00 18.3 4 Noroeste 18 Noroeste 0 -- -- 40
2020-10-03 23:00:00 18.7 3 Noroeste 12 Sudeste 0 -- -- 36
2020-10-03 22:00:00 17.9 0 Calma 12 Nordeste 0 -- -- 34
2020-10-03 21:00:00 18.9 2 Oeste 18 Noroeste 0 -- -- 32
2020-10-03 20:00:00 19.7 3 Norte 16 Nordeste 0 -- -- 31
2020-10-03 19:00:00 21.2 4 Norte 23 Nordeste 0 -- -- 29
2020-10-03 18:00:00 22.7 8 Nordeste 27 Nordeste 0 -- -- 25
2020-10-03 17:00:00 22.4 6 Nordeste 18 Nordeste 0 -- -- 25
2020-10-03 16:00:00 21.9 7 Oeste 26 Este 0 -- -- 30
2020-10-03 15:00:00 22.3 7 Norte 36 Nordeste 0 -- -- 29
2020-10-03 14:00:00 21.9 8 Norte 24 Nordeste 0 -- -- 30
2020-10-03 13:00:00 20.2 8 Norte 43 Nordeste 0 -- -- 37
2020-10-03 12:00:00 19.1 8 Norte 27 Nordeste 0 -- -- 41
2020-10-03 11:00:00 17.5 7 Norte 26 Noroeste 0 -- -- 46
2020-10-03 10:00:00 16.2 6 Norte 17 Norte 0 -- -- 51
2020-10-03 09:00:00 14.3 5 Noroeste 20 Este 0 -- -- 54
2020-10-03 08:00:00 13.5 2 Oeste 14 Noroeste 0.2 -- -- 55
2020-10-03 07:00:00 14 6 Norte 26 Norte 0 -- -- 52
2020-10-03 06:00:00 14.7 10 Norte 31 Norte 0 -- -- 49
2020-10-03 05:00:00 15.2 10 Norte 41 Norte 0 -- -- 48
2020-10-03 04:00:00 15.6 13 Norte 37 Norte 0 -- -- 49
2020-10-03 03:00:00 15.9 6 Noroeste 25 Oeste 0 -- -- 47
2020-10-03 02:00:00 16.4 7 Norte 25 Oeste 0 -- -- 48
2020-10-03 01:00:00 17.1 4 Noroeste 21 Sudoeste 0 -- -- 52
2020-10-03 00:00:00 17.6 4 Norte 17 Sudeste 0 -- -- 50
2020-10-02 23:00:00 18 3 Noroeste 24 Noroeste 0 -- -- 55
2020-10-02 22:00:00 17.8 8 Norte 30 Norte 0 -- -- 60
2020-10-02 21:00:00 19.2 7 Norte 34 Nordeste 0 -- -- 72
2020-10-02 20:00:00 20.8 8 Norte 28 Norte 0.2 -- -- 70
2020-10-02 19:00:00 23.6 8 Norte 33 Sudoeste 0 -- -- 58
2020-10-02 18:00:00 22.3 12 Sudoeste 40 Sur 0 -- -- 71
2020-10-02 17:00:00 21.7 15 Sudoeste 37 Sudoeste 0 -- -- 68
2020-10-02 16:00:00 22.2 12 Sudoeste 36 Sudoeste 0 -- -- 65
2020-10-02 15:00:00 24.8 13 Sudoeste 35 Sudoeste 0 -- -- 54
2020-10-02 14:00:00 24.1 13 Sudoeste 29 Sudoeste 0 -- -- 52
2020-10-02 13:00:00 22.3 11 Sudoeste 24 Sudoeste 0 -- -- 56
2020-10-02 12:00:00 21 9 Sudoeste 18 Sudoeste 0 -- -- 58
2020-10-02 11:00:00 19.9 4 Sur 15 Nordeste 0 -- -- 59
2020-10-02 10:00:00 19.3 3 Norte 9 Este 0 -- -- 58
2020-10-02 09:00:00 19.1 0 Calma 12 Sudoeste 0 -- -- 66
2020-10-02 08:00:00 19.4 2 Sudoeste 8 Sudoeste 0 -- -- 63
2020-10-02 07:00:00 19.7 0 Calma 12 Noroeste 0 -- -- 57
2020-10-02 06:00:00 19.5 0 Calma 8 Noroeste 0 -- -- 60
2020-10-02 05:00:00 20.6 2 Oeste 14 Nordeste 0 -- -- 57
2020-10-02 04:00:00 20.9 6 Noroeste 17 Norte 0 -- -- 57
2020-10-02 03:00:00 21.1 4 Nordeste 14 Nordeste 0 -- -- 56
2020-10-02 02:00:00 22 4 Noroeste 22 Noroeste 0 -- -- 54
2020-10-02 01:00:00 22.6 4 Norte 26 Norte 0 -- -- 53
2020-10-02 00:00:00 23.6 7 Noroeste 24 Noroeste 0 -- -- 50
2020-10-01 23:00:00 24.6 7 Norte 30 Norte 0 -- -- 46
2020-10-01 22:00:00 25.4 6 Norte 26 Norte 0 -- -- 37
2020-10-01 21:00:00 26.2 5 Norte 23 Noroeste 0 -- -- 33
2020-10-01 20:00:00 27.2 4 Noroeste 16 Noroeste 0 -- -- 23
2020-10-01 19:00:00 29.1 3 Noroeste 22 Nordeste 0 -- -- 18
2020-10-01 18:00:00 31.3 7 Nordeste 24 Nordeste 0 -- -- 18
2020-10-01 17:00:00 31.2 6 Nordeste 25 Oeste 0 -- -- 19
2020-10-01 16:00:00 28.9 7 Sudeste 24 Sur 0 -- -- 33
2020-10-01 15:00:00 27.9 9 Sudoeste 22 Sudoeste 0 -- -- 42
2020-10-01 14:00:00 27.5 10 Sudoeste 21 Oeste 0 -- -- 45
2020-10-01 13:00:00 28.7 5 Sur 21 Nordeste 0 -- -- 36
2020-10-01 12:00:00 28 5 Norte 19 Nordeste 0 -- -- 34
2020-10-01 11:00:00 26.5 5 Sudoeste 21 Norte 0 -- -- 34
2020-10-01 10:00:00 25.5 8 Norte 27 Noroeste 0 -- -- 40
2020-10-01 09:00:00 23.8 12 Norte 31 Norte 0 -- -- 43
2020-10-01 08:00:00 23.2 12 Norte 30 Norte 0 -- -- 45
2020-10-01 07:00:00 23.3 11 Noroeste 31 Noroeste 0 -- -- 47
2020-10-01 06:00:00 23 9 Noroeste 22 Norte 0 -- -- 51
2020-10-01 05:00:00 22.5 9 Noroeste 26 Noroeste 0 -- -- 61
2020-10-01 04:00:00 19.3 5 Noroeste 19 Norte 0 -- -- 86
2020-10-01 03:00:00 18.8 0 Calma 10 Sudoeste 0 -- -- 90
2020-10-01 02:00:00 18.9 4 Sudoeste 11 Sudoeste 0 -- -- 90
2020-10-01 01:00:00 19.3 0 Calma 10 Sudoeste 0 -- -- 90
2020-10-01 00:00:00 19.1 0 Calma 4 Sudoeste 0 -- -- 89